Time;durP1;ratioP1;P1;durP2;ratioP2;P2;SDS_P1;SDS_P2;PMS_P1;PMS_P2;Temp;Humidity;BMP_temperature;BMP_pressure;BME280_temperature;BME280_humidity;BME280_pressure;Samples;Min_cycle;Max_cycle;Signal;HPM_P1;HPM_P2
2022/11/06 00:00:51;;;;;;;8.65;5.22;;;;;;;;;;5028500;28;20039;-86
2022/11/06 00:03:16;;;;;;;12.27;5.65;;;;;;;;;;5014454;28;20033;-86
2022/11/06 00:08:33;;;;;;;11.13;5.18;;;;;;;;;;5037391;28;20036;-86
2022/11/06 00:10:59;;;;;;;8.98;5.90;;;;;;;;;;5028197;28;20040;-86
2022/11/06 00:14:15;;;;;;;9.48;5.55;;;;;;;;;;5035248;28;20037;-85
2022/11/06 00:16:42;;;;;;;11.35;5.65;;;;;;;;;;5035293;28;20108;-85
2022/11/06 00:19:08;;;;;;;14.85;6.45;;;;;;;;;;5038194;28;20051;-86
2022/11/06 00:21:34;;;;;;;15.80;6.35;;;;;;;;;;5017581;28;20031;-85
2022/11/06 00:24:01;;;;;;;8.85;5.40;;;;;;;;;;5031527;28;20483;-85
2022/11/06 00:26:29;;;;;;;12.45;6.03;;;;;;;;;;5029111;28;20044;-86
2022/11/06 00:28:54;;;;;;;10.13;5.75;;;;;;;;;;5036220;28;20023;-86
2022/11/06 00:31:22;;;;;;;9.10;5.97;;;;;;;;;;5032323;28;20020;-85
2022/11/06 00:33:48;;;;;;;7.82;5.85;;;;;;;;;;5020729;28;20017;-85
2022/11/06 00:36:17;;;;;;;15.68;6.25;;;;;;;;;;5041853;28;20562;-85
2022/11/06 00:39:10;;;;;;;12.68;5.82;;;;;;;;;;5037543;28;20479;-85
2022/11/06 00:41:36;;;;;;;14.75;6.80;;;;;;;;;;5032129;28;20120;-85
2022/11/06 00:44:02;;;;;;;8.45;5.50;;;;;;;;;;5030945;28;20068;-85
2022/11/06 00:46:28;;;;;;;12.43;6.68;;;;;;;;;;5026977;28;20025;-85
2022/11/06 00:48:54;;;;;;;12.60;6.93;;;;;;;;;;5030236;28;20044;-86
2022/11/06 00:51:23;;;;;;;10.48;6.47;;;;;;;;;;5030512;28;20025;-84
2022/11/06 00:53:53;;;;;;;11.55;5.82;;;;;;;;;;5029476;28;20022;-86
2022/11/06 00:56:18;;;;;;;7.80;5.10;;;;;;;;;;5031276;28;20032;-86
2022/11/06 00:58:45;;;;;;;8.07;5.57;;;;;;;;;;5030577;28;20380;-85
2022/11/06 01:01:13;;;;;;;13.20;5.80;;;;;;;;;;5028354;28;20025;-84
2022/11/06 01:03:41;;;;;;;11.50;6.30;;;;;;;;;;5028416;28;20127;-85
2022/11/06 01:06:10;;;;;;;9.18;5.70;;;;;;;;;;5012951;28;20502;-86
2022/11/06 01:08:36;;;;;;;9.63;6.13;;;;;;;;;;5031062;28;20112;-84
2022/11/06 01:11:06;;;;;;;12.02;6.13;;;;;;;;;;5031879;28;20583;-85
2022/11/06 01:13:32;;;;;;;10.38;5.68;;;;;;;;;;5034794;28;20018;-86
2022/11/06 01:15:57;;;;;;;11.60;6.32;;;;;;;;;;5034531;28;20177;-84
2022/11/06 01:18:22;;;;;;;12.57;5.70;;;;;;;;;;5016588;28;20706;-85
2022/11/06 01:20:48;;;;;;;9.18;5.82;;;;;;;;;;5031587;28;20029;-85
2022/11/06 01:23:13;;;;;;;9.15;5.22;;;;;;;;;;5006921;28;20021;-85
2022/11/06 01:25:38;;;;;;;9.38;5.13;;;;;;;;;;5026996;28;20032;-85
2022/11/06 01:28:04;;;;;;;9.25;5.97;;;;;;;;;;5034201;28;20034;-83
2022/11/06 01:30:29;;;;;;;8.57;5.38;;;;;;;;;;5037745;28;20067;-86
2022/11/06 01:32:55;;;;;;;11.30;5.78;;;;;;;;;;5037807;28;20072;-86
2022/11/06 01:35:20;;;;;;;9.25;5.03;;;;;;;;;;5039211;28;20536;-87
2022/11/06 01:37:45;;;;;;;9.73;5.32;;;;;;;;;;5039156;28;20039;-86
2022/11/06 01:40:11;;;;;;;9.68;6.10;;;;;;;;;;5039268;28;20021;-86
2022/11/06 01:42:36;;;;;;;10.45;5.22;;;;;;;;;;5039105;28;20029;-85
2022/11/06 01:45:24;;;;;;;9.82;5.65;;;;;;;;;;5038610;28;20013;-86
2022/11/06 01:47:49;;;;;;;81.78;22.58;;;;;;;;;;5040709;28;20035;-86
2022/11/06 01:50:16;;;;;;;17.33;8.20;;;;;;;;;;5054510;28;20084;-86
2022/11/06 01:52:44;;;;;;;9.52;4.80;;;;;;;;;;5058359;28;20012;-85
2022/11/06 01:55:16;;;;;;;10.48;5.78;;;;;;;;;;5054477;28;20017;-85
2022/11/06 01:57:42;;;;;;;15.30;5.55;;;;;;;;;;5047646;28;20033;-87
2022/11/06 02:00:10;;;;;;;11.90;4.38;;;;;;;;;;5034966;28;20108;-88
2022/11/06 02:02:37;;;;;;;10.63;6.18;;;;;;;;;;5011956;28;20041;-86
2022/11/06 02:05:02;;;;;;;7.97;5.28;;;;;;;;;;5028265;28;20037;-85
2022/11/06 02:07:28;;;;;;;9.70;5.18;;;;;;;;;;5028477;28;20047;-86
2022/11/06 02:09:53;;;;;;;16.25;6.60;;;;;;;;;;5028039;28;20104;-86
2022/11/06 02:12:37;;;;;;;9.50;5.82;;;;;;;;;;5027042;28;20040;-86
2022/11/06 02:15:24;;;;;;;10.00;5.25;;;;;;;;;;5026002;28;20025;-86
2022/11/06 02:17:52;;;;;;;9.07;5.15;;;;;;;;;;5025318;28;20029;-87
2022/11/06 02:20:35;;;;;;;8.35;5.10;;;;;;;;;;5022568;28;20076;-87
2022/11/06 02:23:30;;;;;;;9.00;4.88;;;;;;;;;;5009103;28;20044;-85
2022/11/06 02:26:26;;;;;;;9.02;5.72;;;;;;;;;;5021170;28;20028;-86
2022/11/06 02:29:08;;;;;;;9.98;5.47;;;;;;;;;;5033391;28;20100;-84
2022/11/06 02:31:36;;;;;;;14.23;5.68;;;;;;;;;;5013862;28;20115;-86
2022/11/06 02:34:10;;;;;;;10.93;6.18;;;;;;;;;;5032976;28;20618;-86
2022/11/06 02:36:41;;;;;;;12.40;5.35;;;;;;;;;;5031379;28;20033;-85
2022/11/06 02:39:11;;;;;;;9.23;5.70;;;;;;;;;;5015601;28;20032;-86
2022/11/06 02:41:41;;;;;;;10.15;5.55;;;;;;;;;;5031769;28;20450;-85
2022/11/06 02:44:09;;;;;;;7.60;5.55;;;;;;;;;;5010725;28;20071;-85
2022/11/06 02:46:39;;;;;;;9.88;5.25;;;;;;;;;;5021739;28;20037;-86
2022/11/06 02:49:30;;;;;;;10.10;6.60;;;;;;;;;;5019794;28;20124;-86
2022/11/06 02:51:59;;;;;;;10.98;5.75;;;;;;;;;;5037865;28;20033;-84
2022/11/06 02:54:27;;;;;;;19.77;6.60;;;;;;;;;;5035853;28;20387;-86
2022/11/06 02:56:59;;;;;;;10.18;6.50;;;;;;;;;;5036299;28;20496;-85
2022/11/06 02:59:32;;;;;;;10.20;6.10;;;;;;;;;;5045355;28;20067;-86
2022/11/06 03:02:01;;;;;;;14.90;6.75;;;;;;;;;;5038410;28;20033;-84
2022/11/06 03:04:34;;;;;;;11.30;6.10;;;;;;;;;;5042574;28;20492;-85
2022/11/06 03:07:08;;;;;;;10.02;6.07;;;;;;;;;;5040337;28;20018;-85
2022/11/06 03:09:34;;;;;;;9.32;5.63;;;;;;;;;;5022885;28;20097;-87
2022/11/06 03:12:11;;;;;;;22.33;6.72;;;;;;;;;;5039079;28;20494;-85
2022/11/06 03:15:02;;;;;;;14.88;6.03;;;;;;;;;;5039015;28;20017;-86
2022/11/06 03:17:40;;;;;;;9.43;5.95;;;;;;;;;;5037227;28;20025;-85
2022/11/06 03:20:35;;;;;;;14.93;6.50;;;;;;;;;;5020808;28;20035;-87
2022/11/06 03:23:23;;;;;;;16.42;6.50;;;;;;;;;;5037702;28;20034;-85
2022/11/06 03:26:09;;;;;;;23.92;6.15;;;;;;;;;;5033965;28;20073;-86
2022/11/06 03:28:42;;;;;;;25.52;6.75;;;;;;;;;;5015653;28;20033;-85
2022/11/06 03:31:14;;;;;;;36.08;6.55;;;;;;;;;;5007242;28;20029;-85
2022/11/06 03:33:47;;;;;;;;;;;;;;;;;;5030910;28;20049;-84
2022/11/06 03:36:21;;;;;;;40.97;5.00;;;;;;;;;;5033018;28;19924;-87
2022/11/06 03:38:54;;;;;;;36.03;9.00;;;;;;;;;;5028367;28;20791;-85
2022/11/06 03:42:04;;;;;;;21.10;5.32;;;;;;;;;;5029359;28;20048;-86
2022/11/06 03:48:02;;;;;;;50.85;6.68;;;;;;;;;;4987367;28;20042;-86
2022/11/06 03:50:46;;;;;;;84.32;8.68;;;;;;;;;;5031184;28;20025;-85
2022/11/06 03:53:22;;;;;;;63.15;8.45;;;;;;;;;;5015520;28;20025;-86
2022/11/06 03:55:52;;;;;;;20.58;7.00;;;;;;;;;;5032018;28;20021;-87
2022/11/06 03:58:24;;;;;;;20.83;7.70;;;;;;;;;;5035613;28;20091;-87
2022/11/06 04:00:51;;;;;;;11.32;7.28;;;;;;;;;;5017759;28;20025;-87
2022/11/06 04:03:36;;;;;;;11.23;7.35;;;;;;;;;;5017803;28;20053;-86
2022/11/06 04:06:11;;;;;;;13.02;6.82;;;;;;;;;;5037119;28;20085;-87
2022/11/06 04:14:11;;;;;;;11.15;6.22;;;;;;;;;;5033866;28;20469;-86
2022/11/06 04:16:40;;;;;;;13.48;5.75;;;;;;;;;;5035073;28;20039;-85
2022/11/06 04:19:14;;;;;;;10.95;6.05;;;;;;;;;;5033355;28;20101;-86
2022/11/06 04:21:58;;;;;;;10.45;6.20;;;;;;;;;;5036468;28;20017;-86
2022/11/06 04:28:07;;;;;;;101.80;8.07;;;;;;;;;;5044645;28;20099;-87
2022/11/06 04:30:44;;;;;;;110.40;7.80;;;;;;;;;;5036942;28;20033;-87
2022/11/06 04:33:42;;;;;;;91.05;7.47;;;;;;;;;;5019615;28;20049;-87
2022/11/06 04:36:31;;;;;;;109.95;8.13;;;;;;;;;;5016037;28;20791;-87
2022/11/06 04:39:12;;;;;;;14.27;5.38;;;;;;;;;;5022458;28;20756;-86
2022/11/06 04:41:41;;;;;;;87.75;7.75;;;;;;;;;;5040640;28;20043;-87
2022/11/06 04:44:12;;;;;;;120.32;8.88;;;;;;;;;;5036059;28;20029;-87
2022/11/06 04:46:56;;;;;;;53.22;7.53;;;;;;;;;;5017451;28;20039;-86
2022/11/06 04:49:24;;;;;;;189.57;9.15;;;;;;;;;;5020740;28;20939;-86
2022/11/06 04:51:50;;;;;;;117.80;9.75;;;;;;;;;;5013572;28;20121;-87
2022/11/06 04:54:16;;;;;;;82.97;6.65;;;;;;;;;;5034154;28;20010;-85
2022/11/06 04:56:41;;;;;;;210.20;11.65;;;;;;;;;;5052839;28;20056;-89
2022/11/06 04:59:11;;;;;;;112.90;7.40;;;;;;;;;;5052690;28;20650;-86
2022/11/06 05:01:36;;;;;;;157.70;9.38;;;;;;;;;;5021793;28;20081;-90
2022/11/06 05:04:01;;;;;;;21.70;5.78;;;;;;;;;;5038656;28;20734;-89
2022/11/06 05:06:27;;;;;;;15.25;5.55;;;;;;;;;;5034418;28;20036;-88
2022/11/06 05:08:52;;;;;;;57.17;6.10;;;;;;;;;;5035095;28;20025;-86
2022/11/06 05:11:18;;;;;;;17.00;6.18;;;;;;;;;;5033949;28;20368;-89
2022/11/06 05:13:43;;;;;;;48.25;7.55;;;;;;;;;;5033323;28;20036;-89
2022/11/06 05:16:09;;;;;;;10.25;5.45;;;;;;;;;;5018011;28;20025;-89
2022/11/06 05:18:34;;;;;;;39.80;5.70;;;;;;;;;;5020437;28;20025;-89
2022/11/06 05:23:45;;;;;;;22.58;5.22;;;;;;;;;;5035936;28;20035;-88
2022/11/06 05:26:11;;;;;;;30.73;4.97;;;;;;;;;;5034070;28;20025;-89
2022/11/06 05:28:36;;;;;;;28.35;6.13;;;;;;;;;;5016777;28;20025;-88
2022/11/06 05:31:02;;;;;;;14.40;6.78;;;;;;;;;;5022265;28;20025;-88
2022/11/06 05:33:28;;;;;;;28.33;5.20;;;;;;;;;;5023340;28;20029;-88
2022/11/06 05:35:53;;;;;;;67.13;5.80;;;;;;;;;;5018608;28;20494;-87
2022/11/06 05:38:19;;;;;;;51.33;5.35;;;;;;;;;;5040441;28;20036;-88
2022/11/06 05:40:45;;;;;;;57.30;5.28;;;;;;;;;;5038108;28;20048;-87
2022/11/06 05:43:10;;;;;;;88.10;5.68;;;;;;;;;;5037852;28;20660;-88
2022/11/06 05:45:35;;;;;;;92.57;8.75;;;;;;;;;;5037407;28;20124;-88
2022/11/06 05:48:01;;;;;;;92.10;6.15;;;;;;;;;;5023092;28;20033;-87
2022/11/06 05:50:27;;;;;;;95.03;6.35;;;;;;;;;;5037340;28;20534;-88
2022/11/06 05:52:52;;;;;;;64.57;6.50;;;;;;;;;;5039889;28;20106;-88
2022/11/06 05:55:17;;;;;;;92.05;6.10;;;;;;;;;;5020689;28;20021;-88
2022/11/06 05:57:43;;;;;;;59.88;5.35;;;;;;;;;;5020262;28;20027;-88
2022/11/06 06:00:09;;;;;;;38.28;4.60;;;;;;;;;;5033841;28;20096;-87
2022/11/06 06:02:38;;;;;;;94.50;7.10;;;;;;;;;;5033145;28;20029;-87
2022/11/06 06:05:05;;;;;;;27.77;4.78;;;;;;;;;;5032729;28;20099;-88
2022/11/06 06:07:31;;;;;;;30.02;4.95;;;;;;;;;;5011373;28;20056;-87
2022/11/06 06:09:56;;;;;;;35.03;5.35;;;;;;;;;;5014100;28;20057;-88
2022/11/06 06:12:25;;;;;;;21.77;4.20;;;;;;;;;;5031846;28;20025;-88
2022/11/06 06:14:53;;;;;;;15.90;4.97;;;;;;;;;;5016229;28;20116;-88
2022/11/06 06:17:19;;;;;;;18.33;4.85;;;;;;;;;;5035930;28;20017;-88
2022/11/06 06:19:45;;;;;;;18.98;4.53;;;;;;;;;;5018700;28;20043;-88
2022/11/06 06:22:10;;;;;;;40.38;4.82;;;;;;;;;;5018321;28;20472;-88
2022/11/06 06:24:36;;;;;;;26.98;4.57;;;;;;;;;;5018617;28;20068;-87
2022/11/06 06:27:01;;;;;;;9.52;4.65;;;;;;;;;;5040349;28;20047;-86
2022/11/06 06:29:27;;;;;;;16.40;4.38;;;;;;;;;;5045976;28;20082;-87
2022/11/06 06:31:52;;;;;;;32.83;4.70;;;;;;;;;;5060961;28;20048;-88
2022/11/06 06:34:18;;;;;;;40.25;4.88;;;;;;;;;;5056703;28;20044;-88
2022/11/06 06:36:43;;;;;;;35.95;4.78;;;;;;;;;;5041019;28;20695;-88
2022/11/06 06:39:09;;;;;;;57.85;5.22;;;;;;;;;;5039619;28;20261;-88
2022/11/06 06:41:34;;;;;;;63.33;5.60;;;;;;;;;;5014800;28;20105;-88
2022/11/06 06:43:59;;;;;;;17.95;4.32;;;;;;;;;;5030312;28;20108;-88
2022/11/06 06:46:25;;;;;;;100.15;6.78;;;;;;;;;;5026034;28;20103;-87
2022/11/06 06:48:50;;;;;;;35.88;5.05;;;;;;;;;;5032801;28;20276;-88
2022/11/06 06:51:15;;;;;;;32.67;4.95;;;;;;;;;;5012440;28;20040;-87
2022/11/06 06:53:41;;;;;;;26.27;5.28;;;;;;;;;;5033169;28;20040;-87
2022/11/06 06:56:06;;;;;;;47.90;6.03;;;;;;;;;;5033540;28;20216;-87
2022/11/06 06:58:32;;;;;;;44.90;6.70;;;;;;;;;;5036722;28;20031;-88
2022/11/06 07:01:02;;;;;;;30.90;7.35;;;;;;;;;;5016535;28;20030;-87
2022/11/06 07:03:28;;;;;;;53.20;6.90;;;;;;;;;;5030974;28;20040;-88
2022/11/06 07:05:56;;;;;;;15.90;6.03;;;;;;;;;;5013210;28;20029;-88
2022/11/06 07:08:28;;;;;;;50.88;6.65;;;;;;;;;;5031853;28;20445;-88
2022/11/06 07:11:05;;;;;;;61.92;5.75;;;;;;;;;;5020628;28;20022;-87
2022/11/06 07:13:31;;;;;;;89.03;8.18;;;;;;;;;;5023201;28;20097;-86
2022/11/06 07:16:08;;;;;;;28.85;6.63;;;;;;;;;;5040811;28;20111;-88
2022/11/06 07:18:34;;;;;;;7.80;5.28;;;;;;;;;;5041923;28;20020;-87
2022/11/06 07:21:03;;;;;;;8.45;5.47;;;;;;;;;;5038752;28;20022;-86
2022/11/06 07:23:28;;;;;;;15.13;6.75;;;;;;;;;;5036460;28;20132;-87
2022/11/06 07:25:54;;;;;;;10.15;5.75;;;;;;;;;;5019593;28;20108;-87
2022/11/06 07:28:19;;;;;;;6.65;4.60;;;;;;;;;;5038799;28;20049;-87
2022/11/06 07:30:45;;;;;;;8.50;5.57;;;;;;;;;;5019975;28;20386;-87
2022/11/06 07:33:11;;;;;;;9.30;5.63;;;;;;;;;;5036383;28;20155;-87
2022/11/06 07:35:37;;;;;;;8.23;5.57;;;;;;;;;;5040408;28;20151;-87
2022/11/06 07:38:05;;;;;;;8.85;5.45;;;;;;;;;;5036261;28;20025;-87
2022/11/06 07:40:35;;;;;;;9.55;5.72;;;;;;;;;;5019963;28;20028;-87
2022/11/06 07:43:08;;;;;;;7.03;5.03;;;;;;;;;;5037942;28;20033;-87
2022/11/06 07:45:33;;;;;;;7.60;4.72;;;;;;;;;;5037973;28;20021;-87
2022/11/06 07:47:59;;;;;;;7.50;4.80;;;;;;;;;;5019244;28;20025;-88
2022/11/06 07:50:25;;;;;;;8.63;4.57;;;;;;;;;;5038636;28;20032;-86
2022/11/06 07:52:51;;;;;;;6.85;4.40;;;;;;;;;;5036566;28;20021;-87
2022/11/06 07:55:17;;;;;;;6.45;4.57;;;;;;;;;;5019259;28;20025;-87
2022/11/06 07:57:42;;;;;;;7.00;4.88;;;;;;;;;;5017991;28;20656;-87
2022/11/06 08:00:08;;;;;;;6.55;4.05;;;;;;;;;;5031539;28;21723;-87
2022/11/06 08:02:33;;;;;;;12.90;5.18;;;;;;;;;;5015396;28;20044;-88
2022/11/06 08:04:59;;;;;;;6.50;3.65;;;;;;;;;;5020880;28;20053;-87
2022/11/06 08:07:24;;;;;;;8.55;4.32;;;;;;;;;;5028598;28;20025;-87
2022/11/06 08:09:50;;;;;;;6.28;4.70;;;;;;;;;;5037428;28;20029;-87
2022/11/06 08:12:15;;;;;;;6.45;4.22;;;;;;;;;;5017534;28;20029;-87
2022/11/06 08:14:41;;;;;;;6.28;4.28;;;;;;;;;;5016989;28;20029;-87
2022/11/06 08:17:06;;;;;;;7.28;4.30;;;;;;;;;;5035710;28;20036;-87
2022/11/06 08:19:32;;;;;;;8.18;4.40;;;;;;;;;;5035167;28;20688;-88
2022/11/06 08:21:57;;;;;;;6.00;4.20;;;;;;;;;;5015811;28;20033;-88
2022/11/06 08:24:22;;;;;;;5.72;4.30;;;;;;;;;;5015914;28;20033;-89
2022/11/06 08:26:48;;;;;;;8.52;4.22;;;;;;;;;;5032777;28;20112;-87
2022/11/06 08:29:13;;;;;;;7.15;4.60;;;;;;;;;;5014467;28;20104;-86
2022/11/06 08:31:39;;;;;;;7.15;4.15;;;;;;;;;;5014524;28;20029;-87
2022/11/06 08:34:05;;;;;;;5.68;4.32;;;;;;;;;;5020207;28;20026;-86
2022/11/06 08:36:34;;;;;;;7.13;4.72;;;;;;;;;;5030520;28;20013;-87
2022/11/06 08:38:59;;;;;;;7.28;4.53;;;;;;;;;;5054483;28;20029;-87
2022/11/06 08:41:25;;;;;;;7.35;4.13;;;;;;;;;;5053641;28;20132;-85
2022/11/06 08:43:51;;;;;;;6.72;4.32;;;;;;;;;;5044866;28;20721;-87
2022/11/06 08:46:16;;;;;;;12.10;4.65;;;;;;;;;;5035143;28;20064;-87
2022/11/06 08:48:41;;;;;;;7.13;4.38;;;;;;;;;;5032311;28;20075;-87
2022/11/06 08:51:07;;;;;;;9.77;5.22;;;;;;;;;;5015299;28;20021;-87
2022/11/06 08:53:35;;;;;;;8.10;5.22;;;;;;;;;;5016896;28;20024;-87
2022/11/06 08:56:03;;;;;;;6.43;4.18;;;;;;;;;;5031644;28;20143;-88
2022/11/06 08:58:28;;;;;;;9.48;5.15;;;;;;;;;;5012973;28;20387;-86
2022/11/06 09:00:53;;;;;;;8.07;4.75;;;;;;;;;;5017111;28;20051;-87
2022/11/06 09:03:19;;;;;;;7.28;4.18;;;;;;;;;;5019868;28;20101;-87
2022/11/06 09:05:45;;;;;;;6.97;4.80;;;;;;;;;;5018017;28;20503;-87
2022/11/06 09:08:12;;;;;;;7.85;4.53;;;;;;;;;;5037994;28;20025;-87
2022/11/06 09:10:38;;;;;;;8.55;5.25;;;;;;;;;;5020684;28;20094;-87
2022/11/06 09:13:04;;;;;;;7.18;4.72;;;;;;;;;;5040546;28;20029;-86
2022/11/06 09:15:30;;;;;;;8.00;4.85;;;;;;;;;;5020329;28;20028;-87
2022/11/06 09:17:55;;;;;;;7.13;3.88;;;;;;;;;;5017865;28;20499;-88
2022/11/06 09:20:25;;;;;;;7.47;4.95;;;;;;;;;;5037859;28;20032;-87
2022/11/06 09:22:51;;;;;;;7.22;3.97;;;;;;;;;;5038497;28;20079;-87
2022/11/06 09:25:16;;;;;;;10.68;5.13;;;;;;;;;;5040134;28;20066;-87
2022/11/06 09:27:51;;;;;;;9.30;4.55;;;;;;;;;;5020871;28;20053;-88
2022/11/06 09:30:19;;;;;;;8.82;4.60;;;;;;;;;;5037947;28;21532;-86
2022/11/06 09:32:46;;;;;;;7.40;4.35;;;;;;;;;;5033363;28;20027;-87
2022/11/06 09:35:11;;;;;;;7.13;4.32;;;;;;;;;;5031585;28;20475;-88
2022/11/06 09:37:36;;;;;;;7.32;4.28;;;;;;;;;;5015211;28;20022;-88
2022/11/06 09:40:02;;;;;;;6.95;4.13;;;;;;;;;;5012571;28;20439;-87
2022/11/06 09:42:49;;;;;;;7.60;4.43;;;;;;;;;;5016076;28;20624;-87
2022/11/06 09:45:21;;;;;;;5.80;3.85;;;;;;;;;;5030108;28;20095;-86
2022/11/06 09:47:53;;;;;;;6.57;3.80;;;;;;;;;;5028450;28;20025;-87
2022/11/06 09:50:28;;;;;;;6.95;4.85;;;;;;;;;;5033443;28;20025;-88
2022/11/06 09:52:58;;;;;;;7.30;4.45;;;;;;;;;;5008954;28;20033;-86
2022/11/06 09:55:33;;;;;;;8.38;3.63;;;;;;;;;;5029201;28;20020;-88
2022/11/06 09:58:01;;;;;;;6.75;3.92;;;;;;;;;;5026583;28;20025;-87
2022/11/06 10:00:27;;;;;;;6.47;3.78;;;;;;;;;;5024457;28;20030;-87
2022/11/06 10:03:38;;;;;;;5.53;3.60;;;;;;;;;;5029221;28;20450;-86
2022/11/06 10:06:04;;;;;;;7.22;4.32;;;;;;;;;;5008015;28;20067;-87
2022/11/06 10:08:29;;;;;;;5.40;3.30;;;;;;;;;;5007782;28;20037;-86
2022/11/06 10:11:15;;;;;;;5.97;3.92;;;;;;;;;;5013139;28;20031;-87
2022/11/06 10:13:59;;;;;;;7.07;4.40;;;;;;;;;;5019513;28;20059;-87
2022/11/06 10:16:27;;;;;;;7.10;3.92;;;;;;;;;;5012344;28;20022;-86
2022/11/06 10:19:08;;;;;;;5.30;3.47;;;;;;;;;;5036229;28;20025;-88
2022/11/06 10:21:49;;;;;;;4.88;3.20;;;;;;;;;;5028822;28;20097;-86
2022/11/06 10:24:21;;;;;;;5.70;3.60;;;;;;;;;;5012605;28;20041;-88
2022/11/06 10:26:55;;;;;;;6.03;3.13;;;;;;;;;;5012927;28;20037;-87
2022/11/06 10:29:47;;;;;;;5.15;3.70;;;;;;;;;;5038878;28;20040;-88
2022/11/06 10:32:25;;;;;;;8.18;4.35;;;;;;;;;;5036031;28;20048;-86
2022/11/06 10:35:01;;;;;;;5.65;4.07;;;;;;;;;;5033246;28;20577;-87
2022/11/06 10:37:34;;;;;;;6.47;4.13;;;;;;;;;;5035735;28;20033;-86
2022/11/06 10:40:03;;;;;;;7.63;3.63;;;;;;;;;;5029868;28;20051;-87
2022/11/06 10:42:35;;;;;;;7.45;4.22;;;;;;;;;;5011941;28;20032;-86
2022/11/06 10:45:10;;;;;;;6.85;4.13;;;;;;;;;;5027184;28;20029;-86
2022/11/06 10:47:59;;;;;;;8.50;4.22;;;;;;;;;;5030340;28;20822;-85
2022/11/06 10:50:38;;;;;;;6.75;3.90;;;;;;;;;;5010339;28;20029;-86
2022/11/06 10:53:19;;;;;;;6.78;3.97;;;;;;;;;;5031350;28;20021;-86
2022/11/06 10:56:10;;;;;;;6.05;3.80;;;;;;;;;;5028260;28;20021;-87
2022/11/06 10:58:35;;;;;;;7.22;3.95;;;;;;;;;;5010831;28;20049;-86
2022/11/06 11:01:03;;;;;;;8.50;3.67;;;;;;;;;;5028844;28;20029;-86
2022/11/06 11:03:38;;;;;;;8.40;3.97;;;;;;;;;;5028327;28;20080;-88
2022/11/06 11:06:04;;;;;;;6.50;3.90;;;;;;;;;;5033172;28;20052;-85
2022/11/06 11:08:29;;;;;;;6.20;3.70;;;;;;;;;;5022884;28;20486;-87
2022/11/06 11:11:13;;;;;;;8.15;4.00;;;;;;;;;;5055342;28;20049;-86
2022/11/06 11:13:59;;;;;;;7.75;4.30;;;;;;;;;;5059774;28;20001;-87
2022/11/06 11:16:38;;;;;;;5.20;3.60;;;;;;;;;;5056962;28;20091;-87
2022/11/06 11:19:34;;;;;;;6.35;4.05;;;;;;;;;;5020997;28;20034;-87
2022/11/06 11:22:16;;;;;;;6.45;4.20;;;;;;;;;;5026063;28;20046;-86
2022/11/06 11:25:23;;;;;;;5.47;3.90;;;;;;;;;;5037986;28;20029;-87
2022/11/06 11:27:48;;;;;;;7.43;4.55;;;;;;;;;;5029014;28;20484;-87
2022/11/06 11:30:22;;;;;;;6.53;4.22;;;;;;;;;;5029423;28;20033;-87
2022/11/06 11:32:48;;;;;;;5.93;3.95;;;;;;;;;;5013308;28;20029;-87
2022/11/06 11:35:18;;;;;;;8.43;4.50;;;;;;;;;;5034877;28;20017;-86
2022/11/06 11:37:44;;;;;;;5.70;3.95;;;;;;;;;;5029178;28;20029;-86
2022/11/06 11:40:35;;;;;;;5.18;3.40;;;;;;;;;;5019370;28;20033;-86
2022/11/06 11:43:28;;;;;;;6.10;3.47;;;;;;;;;;5030049;28;20022;-85
2022/11/06 11:46:19;;;;;;;7.00;3.58;;;;;;;;;;5036217;28;20025;-85
2022/11/06 11:48:56;;;;;;;4.57;3.05;;;;;;;;;;4988597;28;20536;-86
2022/11/06 11:51:24;;;;;;;4.13;2.75;;;;;;;;;;5019384;28;20382;-86
2022/11/06 11:53:53;;;;;;;4.70;2.88;;;;;;;;;;5023751;28;20573;-88
2022/11/06 11:56:21;;;;;;;5.05;3.00;;;;;;;;;;5039866;28;20021;-87
2022/11/06 11:58:52;;;;;;;4.25;2.80;;;;;;;;;;5026476;28;20100;-87
2022/11/06 12:01:29;;;;;;;4.70;3.47;;;;;;;;;;5019735;28;20786;-86
2022/11/06 12:03:55;;;;;;;7.20;3.50;;;;;;;;;;5018613;28;20475;-87
2022/11/06 12:06:21;;;;;;;5.10;3.40;;;;;;;;;;5029889;28;20033;-85
2022/11/06 12:08:51;;;;;;;4.68;3.20;;;;;;;;;;5010767;28;20025;-87
2022/11/06 12:11:23;;;;;;;5.82;3.00;;;;;;;;;;5036865;28;20025;-85
2022/11/06 12:14:19;;;;;;;5.15;3.10;;;;;;;;;;5024847;28;20024;-86
2022/11/06 12:16:49;;;;;;;5.00;2.83;;;;;;;;;;5010294;28;20033;-86
2022/11/06 12:19:15;;;;;;;5.32;3.33;;;;;;;;;;5032234;28;20079;-87
2022/11/06 12:21:44;;;;;;;8.50;3.17;;;;;;;;;;5042647;28;20044;-88
2022/11/06 12:24:29;;;;;;;4.47;3.20;;;;;;;;;;5017431;28;20049;-87
2022/11/06 12:27:06;;;;;;;6.40;3.50;;;;;;;;;;5026142;28;20037;-89
2022/11/06 12:29:37;;;;;;;6.22;3.20;;;;;;;;;;5029952;28;20169;-88
2022/11/06 12:32:25;;;;;;;4.78;2.72;;;;;;;;;;5034590;28;20025;-88
2022/11/06 12:35:14;;;;;;;6.18;3.70;;;;;;;;;;5033902;28;20467;-88
2022/11/06 12:38:07;;;;;;;7.85;3.60;;;;;;;;;;5026554;28;20037;-88
2022/11/06 12:40:47;;;;;;;4.63;2.92;;;;;;;;;;5013255;28;20025;-89
2022/11/06 12:43:28;;;;;;;5.13;3.50;;;;;;;;;;5025503;28;20029;-89
2022/11/06 12:46:24;;;;;;;4.85;3.60;;;;;;;;;;5028879;28;20148;-88
2022/11/06 12:49:20;;;;;;;5.57;3.92;;;;;;;;;;5020750;28;20030;-88
2022/11/06 12:52:01;;;;;;;3.72;2.53;;;;;;;;;;5045183;28;20026;-86
2022/11/06 12:54:56;;;;;;;4.80;3.28;;;;;;;;;;5035254;28;20049;-86
2022/11/06 12:57:39;;;;;;;4.72;3.13;;;;;;;;;;5025486;28;20028;-86
2022/11/06 13:00:31;;;;;;;4.40;2.58;;;;;;;;;;5037091;28;20029;-87
2022/11/06 13:03:38;;;;;;;3.28;2.53;;;;;;;;;;5003272;28;20038;-87
2022/11/06 13:06:35;;;;;;;4.25;3.10;;;;;;;;;;5012707;28;20112;-87
2022/11/06 13:09:07;;;;;;;5.22;3.10;;;;;;;;;;5034141;28;20029;-86
2022/11/06 13:11:46;;;;;;;4.55;2.75;;;;;;;;;;5029240;28;20041;-87
2022/11/06 13:14:34;;;;;;;5.63;3.33;;;;;;;;;;5031761;28;20079;-85
2022/11/06 13:17:09;;;;;;;5.72;3.30;;;;;;;;;;5034023;28;20120;-86
2022/11/06 13:19:41;;;;;;;3.88;2.60;;;;;;;;;;5030383;28;20057;-86
2022/11/06 13:22:10;;;;;;;4.20;2.90;;;;;;;;;;5031311;28;20025;-85
2022/11/06 13:24:47;;;;;;;3.58;2.42;;;;;;;;;;5026365;28;20789;-85
2022/11/06 13:27:16;;;;;;;5.55;3.05;;;;;;;;;;5029813;28;20748;-84
2022/11/06 13:29:43;;;;;;;4.97;3.10;;;;;;;;;;5030387;28;20028;-85
2022/11/06 13:32:18;;;;;;;3.05;2.45;;;;;;;;;;5035246;28;20097;-84
2022/11/06 13:34:48;;;;;;;4.28;2.60;;;;;;;;;;5022517;28;20038;-84
2022/11/06 13:37:19;;;;;;;4.72;2.67;;;;;;;;;;5019294;28;20100;-90
2022/11/06 13:39:54;;;;;;;4.35;3.00;;;;;;;;;;5027102;28;20025;-88
2022/11/06 13:42:32;;;;;;;3.15;2.17;;;;;;;;;;5014064;28;20029;-89
2022/11/06 13:44:59;;;;;;;5.13;2.75;;;;;;;;;;5030222;28;20101;-89
2022/11/06 13:47:37;;;;;;;5.22;2.65;;;;;;;;;;5011450;28;20113;-89
2022/11/06 13:50:05;;;;;;;4.05;2.65;;;;;;;;;;5011140;28;20022;-88
2022/11/06 13:52:37;;;;;;;3.88;2.22;;;;;;;;;;5014144;28;20044;-89
2022/11/06 13:55:11;;;;;;;;;;;;;;;;;;5025452;28;20025;-88
2022/11/06 13:57:51;;;;;;;7.13;2.25;;;;;;;;;;5014270;28;19923;-89
2022/11/06 14:00:27;;;;;;;3.05;2.25;;;;;;;;;;5005075;28;20040;-89
2022/11/06 14:03:15;;;;;;;3.72;2.30;;;;;;;;;;5010914;28;20026;-89
2022/11/06 14:06:04;;;;;;;3.35;2.50;;;;;;;;;;5017837;28;20041;-88
2022/11/06 14:08:48;;;;;;;2.15;1.90;;;;;;;;;;5022576;28;20022;-88
2022/11/06 14:11:16;;;;;;;2.80;2.20;;;;;;;;;;5017909;28;20646;-89
2022/11/06 14:14:01;;;;;;;3.10;2.33;;;;;;;;;;5016068;28;20061;-88
2022/11/06 14:16:36;;;;;;;2.83;2.08;;;;;;;;;;5031392;28;20088;-89
2022/11/06 14:19:23;;;;;;;2.85;2.20;;;;;;;;;;5015182;28;20017;-89
2022/11/06 14:21:52;;;;;;;4.32;2.60;;;;;;;;;;5014592;28;20021;-89
2022/11/06 14:24:42;;;;;;;4.07;2.40;;;;;;;;;;5039098;28;20056;-89
2022/11/06 14:27:17;;;;;;;3.05;2.08;;;;;;;;;;5017565;28;20032;-89
2022/11/06 14:29:55;;;;;;;2.92;2.25;;;;;;;;;;5003600;28;20025;-89
2022/11/06 14:32:20;;;;;;;3.78;2.40;;;;;;;;;;5009217;28;20025;-89
2022/11/06 14:34:49;;;;;;;2.25;1.90;;;;;;;;;;5025550;28;20125;-89
2022/11/06 14:37:17;;;;;;;4.07;2.55;;;;;;;;;;5019393;28;20025;-90
2022/11/06 14:40:34;;;;;;;3.05;2.22;;;;;;;;;;5021206;28;20033;-88
